createdAt,value
2018-12-29T00:00:58.828Z,18.27
2018-12-29T00:03:28.841Z,24.80
2018-12-29T00:05:58.760Z,25.57
2018-12-29T00:08:28.788Z,21.13
2018-12-29T00:10:58.796Z,23.63
2018-12-29T00:13:28.800Z,14.03
2018-12-29T00:15:58.607Z,14.13
2018-12-29T00:18:28.744Z,17.10
2018-12-29T00:20:58.450Z,19.87
2018-12-29T00:23:29.827Z,21.73
2018-12-29T00:26:00.311Z,24.40
2018-12-29T00:28:30.739Z,22.97
2018-12-29T00:31:01.576Z,20.10
2018-12-29T00:33:31.900Z,18.97
2018-12-29T00:36:02.623Z,21.27
2018-12-29T00:38:32.757Z,27.63
2018-12-29T00:41:02.664Z,24.77
2018-12-29T00:43:32.991Z,25.90
2018-12-29T00:46:04.638Z,21.87
2018-12-29T00:48:34.967Z,22.07
2018-12-29T00:51:07.884Z,20.13
2018-12-29T00:53:38.172Z,20.33
2018-12-29T00:56:09.088Z,16.87
2018-12-29T00:58:39.336Z,16.03
2018-12-29T01:01:09.763Z,16.23
2018-12-29T01:03:39.360Z,18.07
2018-12-29T01:06:09.809Z,14.67
2018-12-29T01:08:40.060Z,19.80
2018-12-29T01:11:10.232Z,16.70
2018-12-29T01:13:40.788Z,18.33
2018-12-29T01:16:10.975Z,18.87
2018-12-29T01:18:41.084Z,18.27
2018-12-29T01:21:11.541Z,18.10
2018-12-29T01:23:41.763Z,18.57
2018-12-29T01:26:11.678Z,17.33
2018-12-29T01:28:41.892Z,20.43
2018-12-29T01:31:12.058Z,21.63
2018-12-29T01:33:42.229Z,18.27
2018-12-29T01:36:12.465Z,16.50
2018-12-29T01:38:42.587Z,18.57
2018-12-29T01:41:12.802Z,16.80
2018-12-29T01:43:42.826Z,19.33
2018-12-29T01:46:12.620Z,17.70
2018-12-29T01:48:42.938Z,17.47
2018-12-29T01:51:12.959Z,18.97
2018-12-29T01:53:48.402Z,18.90
2018-12-29T01:56:18.510Z,13.97
2018-12-29T01:58:48.061Z,17.37
2018-12-29T02:01:18.239Z,17.60
2018-12-29T02:03:48.066Z,13.30
2018-12-29T02:06:17.669Z,19.87
2018-12-29T02:08:47.981Z,16.57
2018-12-29T02:11:18.411Z,15.10
2018-12-29T02:13:48.428Z,15.33
2018-12-29T02:16:19.067Z,13.23
2018-12-29T02:18:49.901Z,12.70
2018-12-29T02:21:20.074Z,15.33
2018-12-29T02:23:50.073Z,15.93
2018-12-29T02:26:19.734Z,14.83
2018-12-29T02:28:49.761Z,18.60
2018-12-29T02:31:19.668Z,14.47
2018-12-29T02:33:50.821Z,17.47
2018-12-29T02:36:21.441Z,15.50
2018-12-29T02:38:52.386Z,13.30
2018-12-29T02:41:22.711Z,13.73
2018-12-29T02:43:53.961Z,13.83
2018-12-29T02:46:24.181Z,15.57
2018-12-29T02:48:56.241Z,13.07
2018-12-29T02:51:27.603Z,10.87
2018-12-29T02:53:59.061Z,10.77
2018-12-29T02:56:29.770Z,14.37
2018-12-29T02:59:00.602Z,11.87
2018-12-29T03:01:31.186Z,8.90
2018-12-29T03:04:01.351Z,10.00
2018-12-29T03:06:30.953Z,9.53
2018-12-29T03:09:00.660Z,8.80
2018-12-29T03:11:30.793Z,7.60
2018-12-29T03:14:00.805Z,8.37
2018-12-29T03:16:31.062Z,6.43
2018-12-29T03:19:00.730Z,7.90
2018-12-29T03:21:30.638Z,10.93
2018-12-29T03:24:00.775Z,7.53
2018-12-29T03:26:30.988Z,8.30
2018-12-29T03:29:01.008Z,6.70
2018-12-29T03:31:30.859Z,6.60
2018-12-29T03:34:02.779Z,6.80
2018-12-29T03:36:32.798Z,6.67
2018-12-29T03:39:03.731Z,10.07
2018-12-29T03:41:34.374Z,6.97
2018-12-29T03:44:04.681Z,8.07
2018-12-29T03:46:34.297Z,7.30
2018-12-29T03:49:03.998Z,8.80
2018-12-29T03:51:34.339Z,8.07
2018-12-29T03:54:04.642Z,6.07
2018-12-29T03:56:34.673Z,7.53
2018-12-29T03:59:04.599Z,7.07
2018-12-29T04:01:34.915Z,7.13
2018-12-29T04:04:04.930Z,7.53
2018-12-29T04:06:35.066Z,6.90
2018-12-29T04:09:23.807Z,7.50
2018-12-29T04:11:54.416Z,7.40
2018-12-29T04:14:24.432Z,8.73
2018-12-29T04:16:55.167Z,9.00
2018-12-29T04:19:24.984Z,10.87
2018-12-29T04:21:55.929Z,8.47
2018-12-29T04:24:26.071Z,8.63
2018-12-29T04:26:56.464Z,9.43
2018-12-29T04:29:26.480Z,10.63
2018-12-29T04:31:56.709Z,8.20
2018-12-29T04:34:26.416Z,9.77
2018-12-29T04:36:56.437Z,12.97
2018-12-29T04:39:26.562Z,12.77
2018-12-29T04:41:56.886Z,11.87
2018-12-29T04:44:27.297Z,10.83
2018-12-29T04:46:57.512Z,9.37
2018-12-29T04:49:27.427Z,12.00
2018-12-29T04:51:57.777Z,9.70
2018-12-29T04:54:30.441Z,11.70
2018-12-29T04:57:00.970Z,8.73
2018-12-29T04:59:31.803Z,16.13
2018-12-29T05:02:02.859Z,11.10
2018-12-29T05:04:34.514Z,13.10
2018-12-29T05:07:04.405Z,11.47
2018-12-29T05:09:35.074Z,9.20
2018-12-29T05:12:05.777Z,9.20
2018-12-29T05:14:36.611Z,10.37
2018-12-29T05:17:06.742Z,14.17
2018-12-29T05:19:36.759Z,14.03
2018-12-29T05:22:06.972Z,17.37
2018-12-29T05:24:37.385Z,13.47
2018-12-29T05:27:09.146Z,20.87
2018-12-29T05:29:39.786Z,19.67
2018-12-29T05:32:10.060Z,16.67
2018-12-29T05:34:40.627Z,20.10
2018-12-29T05:37:10.989Z,17.53
2018-12-29T05:39:40.661Z,16.00
2018-12-29T05:42:10.695Z,21.03
2018-12-29T05:44:41.223Z,21.67
2018-12-29T05:47:11.429Z,22.73
2018-12-29T05:49:42.891Z,23.40
2018-12-29T05:52:13.210Z,21.80
2018-12-29T05:54:44.369Z,20.80
2018-12-29T05:57:15.392Z,19.70
2018-12-29T05:59:46.338Z,20.70
2018-12-29T06:02:17.883Z,20.23
2018-12-29T06:04:48.738Z,21.53
2018-12-29T06:07:19.449Z,21.13
2018-12-29T06:09:49.780Z,23.67
2018-12-29T06:12:20.211Z,20.40
2018-12-29T06:14:50.329Z,17.93
2018-12-29T06:17:20.636Z,19.83
2018-12-29T06:19:50.772Z,16.63
2018-12-29T06:22:20.678Z,14.97
2018-12-29T06:24:50.890Z,16.50
2018-12-29T06:27:21.214Z,16.73
2018-12-29T06:29:51.435Z,19.87
2018-12-29T06:32:21.570Z,24.83
2018-12-29T06:34:51.591Z,29.90
2018-12-29T06:37:22.228Z,25.80
2018-12-29T06:39:52.360Z,35.70
2018-12-29T06:42:22.452Z,28.63
2018-12-29T06:44:52.763Z,30.20
2018-12-29T06:47:23.080Z,30.00
2018-12-29T06:49:53.304Z,32.33
2018-12-29T06:52:23.655Z,27.37
2018-12-29T06:54:53.466Z,25.07
2018-12-29T06:57:23.782Z,23.17
2018-12-29T06:59:53.678Z,21.30
2018-12-29T07:02:23.303Z,20.47
2018-12-29T07:04:54.060Z,24.03
2018-12-29T07:07:24.041Z,27.13
2018-12-29T07:09:53.643Z,27.63
2018-12-29T07:12:23.992Z,26.63
2018-12-29T07:14:54.304Z,28.37
2018-12-29T07:17:25.479Z,30.50
2018-12-29T07:19:55.672Z,28.83
2018-12-29T07:22:25.994Z,26.87
2018-12-29T07:24:56.072Z,26.20
2018-12-29T07:27:26.323Z,26.80
2018-12-29T07:29:57.366Z,33.03
2018-12-29T07:32:28.428Z,25.33
2018-12-29T07:34:59.052Z,25.83
2018-12-29T07:37:29.490Z,25.10
2018-12-29T07:39:59.390Z,24.93
2018-12-29T07:42:29.298Z,26.20
2018-12-29T07:44:59.810Z,34.63
2018-12-29T07:47:29.941Z,34.40
2018-12-29T07:50:00.229Z,34.23
2018-12-29T07:52:30.270Z,41.77
2018-12-29T07:55:00.287Z,39.30
2018-12-29T07:57:30.406Z,38.30
2018-12-29T08:00:00.726Z,33.57
2018-12-29T08:02:31.479Z,48.17
2018-12-29T08:05:02.404Z,44.90
2018-12-29T08:07:32.621Z,57.13
2018-12-29T08:10:02.882Z,57.57
2018-12-29T08:12:33.499Z,37.27
2018-12-29T08:15:04.231Z,37.80
2018-12-29T08:17:34.428Z,55.07
2018-12-29T08:20:04.657Z,46.90
2018-12-29T08:22:34.791Z,63.83
2018-12-29T08:25:04.713Z,41.33
2018-12-29T08:27:34.291Z,50.77
2018-12-29T08:30:04.411Z,37.83
2018-12-29T08:32:34.250Z,43.37
2018-12-29T08:35:04.141Z,35.87
2018-12-29T08:37:34.070Z,55.13
2018-12-29T08:40:04.166Z,40.07
2018-12-29T08:42:34.187Z,39.03
2018-12-29T08:45:04.302Z,36.30
2018-12-29T08:47:34.428Z,38.50
2018-12-29T08:50:04.444Z,37.50
2018-12-29T08:52:34.657Z,36.57
2018-12-29T08:55:04.571Z,41.40
2018-12-29T08:57:34.343Z,36.47
2018-12-29T09:00:10.246Z,41.80
2018-12-29T09:02:47.935Z,40.73
2018-12-29T09:05:17.950Z,43.53
2018-12-29T09:07:47.671Z,66.60
2018-12-29T09:10:18.211Z,44.90
2018-12-29T09:12:48.722Z,44.10
2018-12-29T09:15:21.612Z,43.77
2018-12-29T09:17:52.051Z,49.97
2018-12-29T09:20:22.351Z,33.93
2018-12-29T09:22:53.070Z,41.80
2018-12-29T09:25:23.106Z,36.20
2018-12-29T09:27:53.338Z,39.07
2018-12-29T09:30:23.581Z,42.23
2018-12-29T09:32:53.794Z,39.57
2018-12-29T09:35:23.818Z,38.83
2018-12-29T09:37:54.018Z,44.50
2018-12-29T09:40:24.746Z,42.53
2018-12-29T09:42:54.666Z,67.50
2018-12-29T09:45:24.986Z,36.27
2018-12-29T09:47:55.067Z,50.83
2018-12-29T09:50:25.426Z,44.10
2018-12-29T09:52:55.544Z,43.20
2018-12-29T09:55:25.763Z,42.37
2018-12-29T09:57:56.206Z,42.23
2018-12-29T10:00:26.026Z,38.87
2018-12-29T10:02:56.216Z,38.97
2018-12-29T10:05:26.336Z,41.23
2018-12-29T10:07:56.454Z,51.97
2018-12-29T10:10:26.800Z,40.00
2018-12-29T10:12:57.305Z,52.30
2018-12-29T10:15:27.026Z,39.63
2018-12-29T10:17:57.258Z,41.30
2018-12-29T10:20:27.561Z,30.37
2018-12-29T10:22:57.689Z,34.30
2018-12-29T10:25:28.632Z,36.80
2018-12-29T10:27:59.448Z,36.63
2018-12-29T10:30:29.875Z,38.83
2018-12-29T10:32:59.987Z,35.70
2018-12-29T10:35:29.706Z,42.07
2018-12-29T10:37:59.627Z,32.30
2018-12-29T10:40:29.435Z,33.37
2018-12-29T10:42:59.455Z,29.63
2018-12-29T10:45:29.524Z,28.23
2018-12-29T10:48:01.735Z,28.77
2018-12-29T10:50:32.059Z,35.53
2018-12-29T10:53:02.065Z,31.57
2018-12-29T10:55:32.140Z,34.97
2018-12-29T10:58:02.429Z,29.07
2018-12-29T11:00:35.137Z,31.17
2018-12-29T11:03:04.074Z,30.33
2018-12-29T11:05:33.887Z,33.67
2018-12-29T11:08:04.219Z,30.37
2018-12-29T11:10:34.785Z,41.20
2018-12-29T11:13:04.666Z,42.47
2018-12-29T11:15:34.784Z,45.53
2018-12-29T11:18:04.700Z,49.17
2018-12-29T11:20:34.548Z,46.70
2018-12-29T11:23:04.657Z,34.13
2018-12-29T11:25:34.535Z,46.90
2018-12-29T11:28:04.665Z,42.03
2018-12-29T11:30:34.794Z,40.73
2018-12-29T11:33:05.107Z,48.00
2018-12-29T11:35:34.823Z,38.13
2018-12-29T11:38:04.742Z,36.33
2018-12-29T11:40:34.946Z,35.60
2018-12-29T11:43:04.665Z,39.60
2018-12-29T11:45:34.497Z,42.07
2018-12-29T11:48:05.337Z,33.40
2018-12-29T11:50:35.353Z,38.67
2018-12-29T11:53:05.750Z,38.53
2018-12-29T11:55:36.057Z,38.93
2018-12-29T11:58:06.297Z,33.47
2018-12-29T12:00:36.836Z,34.97
2018-12-29T12:03:09.098Z,36.53
2018-12-29T12:05:39.827Z,41.30
2018-12-29T12:08:10.258Z,43.13
2018-12-29T12:10:43.457Z,40.07
2018-12-29T12:13:13.774Z,31.77
2018-12-29T12:15:44.217Z,37.83
2018-12-29T12:18:14.528Z,36.13
2018-12-29T12:20:44.747Z,42.33
2018-12-29T12:23:15.065Z,40.93
2018-12-29T12:25:45.374Z,31.53
2018-12-29T12:28:16.650Z,34.97
2018-12-29T12:30:47.665Z,43.53
2018-12-29T12:33:18.105Z,38.33
2018-12-29T12:35:49.856Z,34.00
2018-12-29T12:38:20.897Z,42.70
2018-12-29T12:40:51.457Z,37.47
2018-12-29T12:43:23.883Z,41.77
2018-12-29T12:45:54.739Z,45.50
2018-12-29T12:48:24.744Z,41.03
2018-12-29T12:50:54.793Z,47.97
2018-12-29T12:53:24.993Z,46.23
2018-12-29T12:55:55.415Z,40.37
2018-12-29T12:58:26.455Z,42.43
2018-12-29T13:00:57.905Z,40.67
2018-12-29T13:03:28.137Z,41.07
2018-12-29T13:05:58.456Z,37.57
2018-12-29T13:08:28.466Z,44.97
2018-12-29T13:10:59.069Z,43.73
2018-12-29T13:13:29.538Z,50.37
2018-12-29T13:16:00.066Z,41.60
2018-12-29T13:18:30.065Z,35.60
2018-12-29T13:21:00.416Z,39.30
2018-12-29T13:23:30.830Z,37.33
2018-12-29T13:26:01.351Z,39.33
2018-12-29T13:28:31.796Z,41.50
2018-12-29T13:31:02.216Z,42.13
2018-12-29T13:33:33.464Z,39.40
2018-12-29T13:36:03.976Z,43.27
2018-12-29T13:38:34.057Z,41.33
2018-12-29T13:41:04.226Z,43.60
2018-12-29T13:43:35.057Z,39.20
2018-12-29T13:46:05.177Z,46.40
2018-12-29T13:48:35.784Z,42.97
2018-12-29T13:51:05.832Z,45.23
2018-12-29T13:53:36.064Z,41.20
2018-12-29T13:56:06.465Z,46.03
2018-12-29T13:58:36.584Z,42.03
2018-12-29T14:01:06.816Z,46.87
2018-12-29T14:03:37.856Z,41.77
2018-12-29T14:06:07.655Z,40.93
2018-12-29T14:08:37.783Z,43.00
2018-12-29T14:11:08.423Z,47.50
2018-12-29T14:13:38.423Z,52.60
2018-12-29T14:16:08.425Z,42.20
2018-12-29T14:18:38.664Z,46.27
2018-12-29T14:21:08.784Z,36.07
2018-12-29T14:23:38.694Z,40.10
2018-12-29T14:26:08.824Z,64.87
2018-12-29T14:28:42.336Z,51.13
2018-12-29T14:31:11.217Z,42.93
2018-12-29T14:33:42.344Z,46.20
2018-12-29T14:36:12.984Z,42.53
2018-12-29T14:38:43.304Z,40.77
2018-12-29T14:41:14.648Z,47.77
2018-12-29T14:43:44.769Z,39.67
2018-12-29T14:46:14.769Z,50.60
2018-12-29T14:48:45.913Z,43.47
2018-12-29T14:51:16.064Z,39.63
2018-12-29T14:53:47.617Z,41.80
2018-12-29T14:56:17.817Z,35.60
2018-12-29T14:58:48.065Z,45.57
2018-12-29T15:01:18.897Z,49.07
2018-12-29T15:03:49.413Z,51.40
2018-12-29T15:06:19.744Z,43.80
2018-12-29T15:08:50.264Z,47.63
2018-12-29T15:11:20.784Z,45.47
2018-12-29T15:13:51.217Z,44.67
2018-12-29T15:16:21.744Z,47.20
2018-12-29T15:18:52.265Z,41.93
2018-12-29T15:21:23.064Z,44.60
2018-12-29T15:23:55.874Z,43.13
2018-12-29T15:26:27.945Z,44.33
2018-12-29T15:28:58.896Z,36.47
2018-12-29T15:31:31.874Z,41.47
2018-12-29T15:34:01.986Z,39.20
2018-12-29T15:36:34.065Z,41.13
2018-12-29T15:39:06.625Z,35.30
2018-12-29T15:41:39.097Z,38.27
2018-12-29T15:44:10.864Z,38.03
2018-12-29T15:46:43.025Z,36.13
2018-12-29T15:49:17.655Z,49.47
2018-12-29T15:51:50.938Z,46.97
2018-12-29T15:54:23.073Z,38.17
2018-12-29T15:56:53.465Z,37.23
2018-12-29T15:59:23.745Z,40.33
2018-12-29T16:01:53.843Z,41.20
2018-12-29T16:04:24.714Z,39.93
2018-12-29T16:06:55.656Z,41.47
2018-12-29T16:09:26.065Z,41.60
2018-12-29T16:11:56.504Z,38.90
2018-12-29T16:14:26.824Z,38.27
2018-12-29T16:16:57.456Z,39.23
2018-12-29T16:19:27.384Z,42.60
2018-12-29T16:21:57.384Z,44.30
2018-12-29T16:24:27.704Z,45.80
2018-12-29T16:26:58.448Z,49.20
2018-12-29T16:29:28.864Z,52.20
2018-12-29T16:31:59.817Z,48.70
2018-12-29T16:34:30.744Z,46.20
2018-12-29T16:37:02.064Z,46.87
2018-12-29T16:39:33.635Z,40.17
2018-12-29T16:42:04.618Z,40.63
2018-12-29T16:44:35.536Z,40.93
2018-12-29T16:47:07.704Z,46.70
2018-12-29T16:49:39.015Z,52.00
2018-12-29T16:52:09.576Z,48.37
2018-12-29T16:54:40.069Z,65.23
2018-12-29T16:57:10.825Z,47.63
2018-12-29T16:59:41.897Z,53.43
2018-12-29T17:02:13.730Z,48.10
2018-12-29T17:04:44.657Z,38.87
2018-12-29T17:07:14.976Z,43.53
2018-12-29T17:09:46.336Z,41.50
2018-12-29T17:12:17.057Z,39.47
2018-12-29T17:14:47.177Z,35.80
2018-12-29T17:17:19.657Z,37.87
2018-12-29T17:19:50.384Z,42.00
2018-12-29T17:22:21.945Z,34.70
2018-12-29T17:24:52.785Z,38.70
2018-12-29T17:27:23.305Z,37.30
2018-12-29T17:29:57.066Z,47.80
2018-12-29T17:32:29.475Z,42.57
2018-12-29T17:35:01.465Z,45.57
2018-12-29T17:37:33.018Z,43.60
2018-12-29T17:40:04.377Z,46.83
2018-12-29T17:42:37.025Z,56.63
2018-12-29T17:45:08.497Z,58.40
2018-12-29T17:47:39.537Z,54.60
2018-12-29T17:50:10.682Z,52.60
2018-12-29T17:52:42.825Z,52.43
2018-12-29T17:55:14.509Z,48.47
2018-12-29T17:57:46.345Z,44.57
2018-12-29T18:00:17.494Z,48.83
2018-12-29T18:02:48.225Z,52.43
2018-12-29T18:05:19.985Z,40.60
2018-12-29T18:07:50.305Z,40.97
2018-12-29T18:10:20.425Z,45.43
2018-12-29T18:12:51.465Z,46.93
2018-12-29T18:15:22.395Z,45.23
2018-12-29T18:17:53.020Z,38.50
2018-12-29T18:20:23.777Z,43.40
2018-12-29T18:22:54.818Z,44.17
2018-12-29T18:25:25.114Z,42.37
2018-12-29T18:27:55.745Z,68.03
2018-12-29T18:30:26.187Z,43.10
2018-12-29T18:32:57.026Z,48.47
2018-12-29T18:35:28.466Z,47.83
2018-12-29T18:37:59.937Z,46.37
2018-12-29T18:40:31.688Z,46.00
2018-12-29T18:43:02.536Z,43.27
2018-12-29T18:45:33.784Z,44.90
2018-12-29T18:48:04.704Z,43.53
2018-12-29T18:50:36.065Z,37.30
2018-12-29T18:53:06.897Z,38.17
2018-12-29T18:55:38.744Z,40.67
2018-12-29T18:58:08.867Z,46.47
2018-12-29T19:00:40.193Z,38.67
2018-12-29T19:03:11.584Z,38.50
2018-12-29T19:05:42.295Z,42.10
2018-12-29T19:08:12.937Z,41.90
2018-12-29T19:10:43.975Z,41.23
2018-12-29T19:13:15.074Z,41.13
2018-12-29T19:15:45.937Z,42.40
2018-12-29T19:18:16.584Z,42.23
2018-12-29T19:20:47.616Z,42.93
2018-12-29T19:23:18.734Z,43.20
2018-12-29T19:25:49.904Z,41.33
2018-12-29T19:28:21.433Z,45.60
2018-12-29T19:30:51.663Z,39.17
2018-12-29T19:33:22.895Z,39.20
2018-12-29T19:35:53.863Z,38.13
2018-12-29T19:38:26.135Z,33.93
2018-12-29T19:40:56.734Z,33.83
2018-12-29T19:43:27.984Z,36.20
2018-12-29T19:45:59.455Z,33.60
2018-12-29T19:48:30.904Z,36.03
2018-12-29T19:51:01.216Z,31.40
2018-12-29T19:53:31.744Z,28.87
2018-12-29T19:56:03.823Z,24.13
2018-12-29T19:58:34.855Z,26.33
2018-12-29T20:01:05.384Z,26.27
2018-12-29T20:03:37.056Z,27.57
2018-12-29T20:06:11.319Z,25.70
2018-12-29T20:08:41.784Z,29.50
2018-12-29T20:11:13.415Z,26.83
2018-12-29T20:13:45.079Z,24.40
2018-12-29T20:16:17.775Z,23.97
2018-12-29T20:18:51.063Z,22.27
2018-12-29T20:21:24.076Z,26.67
2018-12-29T20:23:56.981Z,27.17
2018-12-29T20:26:29.504Z,25.70
2018-12-29T20:29:00.656Z,24.80
2018-12-29T20:31:31.863Z,28.27
2018-12-29T20:34:04.064Z,26.47
2018-12-29T20:36:35.408Z,25.07
2018-12-29T20:39:08.393Z,23.30
2018-12-29T20:41:39.413Z,25.27
2018-12-29T20:44:10.184Z,29.77
2018-12-29T20:46:41.851Z,26.97
2018-12-29T20:49:14.815Z,26.83
2018-12-29T20:51:45.455Z,28.93
2018-12-29T20:54:17.624Z,25.40
2018-12-29T20:56:48.224Z,26.83
2018-12-29T20:59:18.754Z,27.93
2018-12-29T21:01:50.303Z,28.77
2018-12-29T21:07:53.425Z,28.83
2018-12-29T21:10:27.247Z,28.37
2018-12-29T21:12:57.863Z,29.37
2018-12-29T21:15:31.351Z,34.53
2018-12-29T21:18:02.392Z,34.43
2018-12-29T21:20:33.011Z,37.87
2018-12-29T21:23:02.935Z,44.27
2018-12-29T21:25:33.680Z,43.37
2018-12-29T21:28:04.813Z,41.20
2018-12-29T21:30:35.375Z,46.73
2018-12-29T21:33:05.772Z,32.33
2018-12-29T21:35:36.424Z,31.83
2018-12-29T21:38:06.902Z,34.43
2018-12-29T21:40:37.502Z,38.47
2018-12-29T21:43:08.494Z,35.73
2018-12-29T21:45:39.248Z,40.27
2018-12-29T21:48:10.053Z,34.13
2018-12-29T21:50:40.706Z,33.77
2018-12-29T21:53:11.455Z,24.93
2018-12-29T21:55:43.287Z,24.87
2018-12-29T21:58:14.744Z,30.73
2018-12-29T22:00:53.874Z,26.93
2018-12-29T22:03:41.073Z,31.37
2018-12-29T22:06:20.335Z,30.77
2018-12-29T22:09:03.253Z,33.43
2018-12-29T22:11:42.808Z,37.73
2018-12-29T22:14:23.888Z,47.33
2018-12-29T22:16:56.776Z,34.77
2018-12-29T22:19:33.424Z,30.53
2018-12-29T22:22:07.839Z,46.00
2018-12-29T22:24:42.576Z,35.73
2018-12-29T22:27:24.677Z,39.27
2018-12-29T22:30:05.246Z,33.63
2018-12-29T22:32:36.676Z,38.10
2018-12-29T22:35:07.308Z,33.17
2018-12-29T22:37:38.656Z,27.33
2018-12-29T22:40:09.304Z,29.27
2018-12-29T22:42:40.228Z,27.73
2018-12-29T22:45:11.363Z,26.13
2018-12-29T22:47:41.796Z,30.97
2018-12-29T22:50:11.805Z,29.50
2018-12-29T22:52:42.349Z,37.73
2018-12-29T22:55:12.458Z,33.97
2018-12-29T22:57:42.676Z,32.00
2018-12-29T23:00:19.464Z,40.00
2018-12-29T23:02:49.776Z,38.13
2018-12-29T23:05:20.717Z,42.90
2018-12-29T23:07:50.734Z,32.63
2018-12-29T23:10:21.685Z,37.70
2018-12-29T23:12:52.405Z,35.13
2018-12-29T23:15:23.770Z,36.80
2018-12-29T23:17:57.770Z,35.17
2018-12-29T23:20:29.629Z,33.57
2018-12-29T23:23:05.330Z,37.03
2018-12-29T23:25:35.174Z,47.43
2018-12-29T23:28:07.771Z,35.37
2018-12-29T23:30:37.890Z,32.20
2018-12-29T23:33:11.469Z,33.73
2018-12-29T23:35:41.911Z,46.73
2018-12-29T23:38:12.659Z,60.63
2018-12-29T23:40:43.057Z,35.97
2018-12-29T23:43:13.687Z,38.40
2018-12-29T23:45:44.018Z,28.93
2018-12-29T23:48:14.238Z,27.30
2018-12-29T23:50:44.468Z,27.63
2018-12-29T23:53:14.688Z,28.50
2018-12-29T23:55:45.311Z,33.27
2018-12-29T23:58:15.655Z,30.57
